Latest Weather Observations for Nuriootpa

IDS60801

Issued at 4:05 pm CST Tuesday 29 July 2014 (issued every 30 minutes, with the page automatically refreshed every 10 minutes)

About weather observations | Map of weather stations | Latest weather observations for SA | Other Formats
Station Details ID: 023373 Name: NURIOOTPA VITICULTURAL Lat: -34.48 Lon: 139.01 Height: 275.0 m
Data from the previous 72 hours. | See also: Recent months at Nuriootpa
Date/Time
CST
Temp
°C
App
Temp
°C
Dew
Point
Rel
Hum
%
Delta-T
°C
Wind Press
QNH
hPa
Press
MSL
hPa
Rain
since 9 am
mm
Dir
 
Spd
km/h
Gust
km/h
Spd
kts
Gust
kts
29/04:00pm 13.1 9.4 11.6 91 0.8 WNW 22 30 12 16 1017.2 - 0.4
29/03:30pm 12.8 8.8 11.9 94 0.5 WNW 24 39 13 21 1017.1 1017.5 0.4
29/03:00pm 13.1 7.5 11.6 91 0.8 W 32 46 17 25 1017.0 1017.4 0.0
29/02:30pm 13.4 7.5 11.0 85 1.3 WNW 33 48 18 26 1016.8 1017.2 0.0
29/02:13pm 14.0 7.9 10.4 79 1.9 W 33 52 18 28 1016.5 - 0.0
29/02:00pm 14.1 8.0 10.5 79 1.9 W 33 44 18 24 1016.4 - 0.0
29/01:50pm 14.1 8.3 10.7 80 1.8 W 32 50 17 27 1016.4 - 0.0
29/01:30pm 14.2 8.2 10.8 80 1.8 W 33 50 18 27 1016.3 1016.7 0.0
29/01:12pm 13.5 8.6 11.3 86 1.2 W 28 46 15 25 1016.4 - 0.0
29/01:00pm 13.4 8.8 11.0 85 1.3 WNW 26 37 14 20 1016.5 - 0.0
29/12:30pm 13.4 7.5 10.6 83 1.5 WNW 32 44 17 24 1016.5 1016.9 0.0
29/12:12pm 13.0 6.9 10.5 85 1.3 WNW 33 52 18 28 1016.8 - 0.0
29/12:00pm 13.1 6.7 10.6 85 1.3 WNW 35 52 19 28 1017.0 1017.4 0.0
29/11:43am 13.3 6.5 10.5 83 1.5 WNW 37 56 20 30 1017.2 - 0.0
29/11:30am 13.5 7.0 10.5 82 1.6 WNW 35 52 19 28 1017.1 1017.5 0.0
29/11:00am 12.4 5.1 10.1 86 1.2 WNW 39 57 21 31 1017.1 - 0.0
29/10:30am 11.9 4.2 10.2 89 0.9 WNW 41 59 22 32 1017.0 1017.4 0.0
29/10:23am 12.4 4.9 9.3 81 1.6 WNW 39 57 21 31 1016.8 - 0.0
29/10:00am 12.6 4.2 9.1 79 1.8 WNW 43 57 23 31 1016.7 - 0.0
29/09:35am 12.3 5.4 8.7 79 1.8 WNW 35 54 19 29 1016.7 - 0.0
29/09:30am 12.3 5.0 8.7 79 1.8 WNW 37 52 20 28 1016.6 1017.0 0.0
29/09:03am 11.7 4.4 8.7 82 1.5 WNW 37 56 20 30 1016.8 - 0.0
29/09:00am 11.7 4.7 8.5 81 1.6 WNW 35 50 19 27 1016.7 1017.1 0.0
29/08:39am 11.5 4.1 8.5 82 1.5 WNW 37 59 20 32 1016.5 - 0.0
29/08:30am 11.2 3.4 8.2 82 1.5 WNW 39 54 21 29 1016.5 1016.9 0.0
29/08:00am 10.7 3.2 7.8 82 1.4 WNW 37 54 20 29 1016.0 - 0.0
29/07:38am 10.0 2.0 7.5 84 1.2 W 39 57 21 31 1015.7 - 0.0
29/07:30am 9.7 2.4 7.4 85 1.1 W 35 52 19 28 1015.7 1016.0 0.0
29/07:07am 10.2 1.8 7.3 82 1.4 WNW 41 59 22 32 1015.1 - 0.0
29/07:00am 10.1 1.7 7.2 82 1.4 WNW 41 56 22 30 1014.9 - 0.0
29/06:31am 10.1 2.4 7.0 81 1.5 WNW 37 56 20 30 1014.6 - 0.0
29/06:30am 10.1 2.0 7.0 81 1.5 WNW 39 56 21 30 1014.6 1014.9 0.0
29/06:00am 10.2 1.0 6.4 77 1.8 W 44 65 24 35 1014.7 1015.0 0.0
29/05:30am 10.2 1.8 5.7 73 2.1 W 39 57 21 31 1014.6 1014.9 0.0
29/05:14am 10.2 1.0 5.5 72 2.2 WNW 43 61 23 33 1014.1 - 0.0
29/05:00am 10.5 1.9 4.8 68 2.6 WNW 39 52 21 28 1014.3 - 0.0
29/04:44am 10.7 2.1 4.6 66 2.8 WNW 39 57 21 31 1014.7 - 0.0
29/04:30am 10.6 2.4 4.7 67 2.7 WNW 37 54 20 29 1015.1 1015.4 0.0
29/04:00am 10.8 3.3 4.4 64 2.9 WNW 33 50 18 27 1015.6 - 0.0
29/03:53am 10.9 3.5 4.0 62 3.1 WNW 32 50 17 27 1015.6 - 0.0
29/03:30am 10.9 3.4 4.3 64 3.0 WNW 33 46 18 25 1015.4 1015.7 0.0
29/03:00am 10.7 2.7 3.8 62 3.1 W 35 50 19 27 1015.7 1016.0 0.0
29/02:30am 11.0 2.3 3.9 61 3.2 W 39 57 21 31 1015.7 1016.0 0.0
29/02:29am 11.1 2.3 3.8 61 3.3 W 39 57 21 31 1015.7 - 0.0
29/02:00am 11.4 2.7 3.9 60 3.4 W 39 56 21 30 1015.7 - 0.0
29/01:30am 11.2 2.9 4.2 62 3.2 W 37 56 20 30 1015.9 1016.3 0.0
29/01:00am 11.5 2.8 4.3 61 3.3 W 39 59 21 32 1015.9 - 0.0
29/12:52am 11.7 3.4 4.3 60 3.4 W 37 59 20 32 1015.9 - 0.0
29/12:30am 11.8 3.9 4.1 59 3.5 W 35 46 19 25 1016.1 1016.5 0.0
29/12:00am 11.4 4.3 5.4 66 2.8 WNW 32 44 17 24 1016.2 1016.6 0.0
 
Date/Time
CST
Temp
°C
App
Temp
°C
Dew
Point
Rel
Hum
%
Delta-T
°C
Wind Press
QNH
hPa
Press
MSL
hPa
Rain
since 9 am
mm
Dir
 
Spd
km/h
Gust
km/h
Spd
kts
Gust
kts
28/11:30pm 11.4 4.1 5.4 66 2.8 WNW 33 48 18 26 1016.3 1016.7 0.0
28/11:00pm 11.1 4.0 5.3 67 2.7 WNW 32 46 17 25 1016.3 - 0.0
28/10:30pm 11.0 4.3 5.4 68 2.6 WNW 30 43 16 23 1016.6 1017.0 0.0
28/10:00pm 11.3 4.6 5.5 67 2.7 WNW 30 44 16 24 1016.7 - 0.0
28/09:30pm 11.6 5.3 5.7 67 2.8 WNW 28 44 15 24 1016.8 1017.2 0.0
28/09:00pm 11.5 5.2 5.8 68 2.7 WNW 28 39 15 21 1016.7 1017.1 0.0
28/08:30pm 11.8 5.4 5.4 65 3.0 WNW 28 37 15 20 1016.6 1017.0 0.0
28/08:00pm 11.8 5.9 5.9 67 2.8 WNW 26 35 14 19 1016.5 - 0.0
28/07:30pm 11.7 5.9 6.3 69 2.6 WNW 26 37 14 20 1016.3 1016.7 0.0
28/07:00pm 11.5 6.5 7.9 78 1.8 WNW 24 35 13 19 1016.1 - 0.0
28/06:30pm 11.7 6.4 8.5 81 1.6 WNW 26 39 14 21 1016.0 1016.4 0.0
28/06:00pm 11.6 6.0 8.6 82 1.5 WNW 28 39 15 21 1015.9 1016.3 0.0
28/05:30pm 11.7 7.0 9.1 84 1.3 WNW 24 35 13 19 1015.9 1016.3 0.0
28/05:00pm 12.6 7.0 8.9 78 1.9 WNW 28 43 15 23 1015.8 - 0.0
28/04:30pm 13.2 8.2 9.5 78 1.9 WNW 26 41 14 22 1016.0 1016.4 0.0
28/04:00pm 13.8 8.0 9.4 75 2.3 WNW 30 39 16 21 1016.2 - 0.0
28/03:30pm 14.0 9.3 9.4 74 2.4 WNW 24 35 13 19 1016.3 1016.7 0.0
28/03:00pm 13.7 8.7 9.5 76 2.2 WNW 26 35 14 19 1016.5 1016.9 0.0
28/02:30pm 14.4 9.2 9.0 70 2.8 WNW 26 37 14 20 1016.6 1017.0 0.0
28/02:00pm 13.7 8.3 8.1 69 2.8 WNW 26 35 14 19 1016.6 - 0.0
28/01:30pm 13.7 7.8 7.5 66 3.1 WNW 28 35 15 19 1016.9 1017.3 0.0
28/01:00pm 13.2 7.1 6.6 64 3.2 WNW 28 37 15 20 1017.0 - 0.0
28/12:30pm 13.5 6.7 5.0 56 4.0 WNW 30 41 16 22 1017.4 1017.8 0.0
28/12:00pm 13.2 7.5 4.9 57 3.9 WNW 24 33 13 18 1017.8 1018.2 0.0
28/11:30am 12.2 6.5 4.9 61 3.4 WNW 24 35 13 19 1018.4 1018.7 0.0
28/11:00am 12.4 6.7 5.1 61 3.4 WNW 24 35 13 19 1018.6 - 0.0
28/10:30am 12.2 7.5 5.9 65 3.0 WNW 20 33 11 18 1018.8 1019.1 0.0
28/10:00am 11.8 7.1 6.1 68 2.7 WNW 20 28 11 15 1018.7 - 0.0
28/09:30am 11.7 7.6 6.0 68 2.7 WNW 17 26 9 14 1018.7 1019.0 0.0
28/09:00am 11.1 6.4 5.3 67 2.7 WNW 19 26 10 14 1018.7 1019.0 0.2
28/08:30am 10.6 5.6 3.6 62 3.1 WNW 19 28 10 15 1018.7 1019.0 0.2
28/08:00am 10.3 6.0 3.3 62 3.1 WNW 15 20 8 11 1018.7 - 0.2
28/07:30am 10.3 5.8 2.4 58 3.4 WNW 15 22 8 12 1018.3 1018.6 0.2
28/07:00am 10.5 5.6 2.1 56 3.6 WNW 17 24 9 13 1018.1 - 0.2
28/06:30am 10.5 5.6 2.1 56 3.6 WNW 17 30 9 16 1017.8 1018.2 0.2
28/06:00am 10.9 5.4 2.1 54 3.8 NW 20 30 11 16 1017.5 1017.9 0.2
28/05:30am 11.0 5.6 2.2 54 3.8 WNW 20 30 11 16 1017.5 1017.9 0.2
28/05:00am 11.3 6.1 2.4 54 3.9 WNW 19 30 10 16 1017.6 - 0.2
28/04:30am 11.5 6.2 2.1 52 4.1 W 19 30 10 16 1017.7 1018.1 0.2
28/04:00am 12.0 6.8 2.2 51 4.3 WNW 19 26 10 14 1017.8 - 0.2
28/03:30am 12.6 7.1 1.8 47 4.7 NW 20 33 11 18 1017.5 1017.9 0.2
28/03:00am 12.6 7.3 2.1 49 4.6 NW 19 28 10 15 1017.5 1017.9 0.2
28/02:30am 13.5 7.5 1.3 43 5.3 NW 22 33 12 18 1017.6 1018.0 0.2
28/02:00am 13.8 7.4 1.1 42 5.5 NW 24 33 13 18 1017.7 - 0.2
28/01:30am 13.9 7.6 1.3 42 5.5 NW 24 37 13 20 1017.9 1018.3 0.2
28/01:00am 13.9 7.9 1.3 42 5.5 NW 22 32 12 17 1018.1 - 0.2
28/12:30am 13.3 8.4 1.9 46 5.0 NW 17 28 9 15 1018.6 1018.9 0.2
28/12:00am 9.3 6.1 4.9 74 2.0 NNE 11 13 6 7 1018.8 1019.1 0.2
 
Date/Time
CST
Temp
°C
App
Temp
°C
Dew
Point
Rel
Hum
%
Delta-T
°C
Wind Press
QNH
hPa
Press
MSL
hPa
Rain
since 9 am
mm
Dir
 
Spd
km/h
Gust
km/h
Spd
kts
Gust
kts
27/11:30pm 8.9 6.1 5.2 77 1.7 NNE 9 11 5 6 1019.3 1019.7 0.2
27/11:00pm 9.2 6.4 5.3 76 1.8 NNE 9 9 5 5 1019.4 - 0.2
27/10:30pm 9.9 7.1 5.3 73 2.1 NNE 9 11 5 6 1019.6 1020.0 0.2
27/10:00pm 10.1 7.0 5.6 73 2.1 NNE 11 13 6 7 1019.8 - 0.2
27/09:30pm 10.6 7.9 5.4 70 2.4 NNE 9 13 5 7 1020.1 1020.5 0.2
27/09:00pm 11.1 7.9 5.3 67 2.7 N 11 13 6 7 1020.1 1020.5 0.2
27/08:30pm 10.7 7.9 5.3 69 2.5 N 9 13 5 7 1020.1 1020.5 0.2
27/08:00pm 11.2 8.0 5.2 66 2.8 N 11 13 6 7 1020.2 - 0.2
27/07:30pm 11.7 8.5 5.3 65 3.0 N 11 15 6 8 1020.4 1020.8 0.2
27/07:00pm 12.1 9.3 5.3 63 3.2 N 9 13 5 7 1020.5 - 0.2
27/06:30pm 13.7 10.0 4.2 52 4.4 NNW 13 22 7 12 1020.2 1020.6 0.2
27/06:00pm 14.0 9.5 4.1 51 4.6 NNW 17 24 9 13 1020.2 1020.6 0.2
27/05:30pm 14.0 9.9 4.6 53 4.4 NNW 15 24 8 13 1020.3 1020.7 0.2
27/05:00pm 14.0 10.5 5.4 56 4.1 NW 13 20 7 11 1020.4 - 0.2
27/04:30pm 14.7 11.1 5.0 52 4.6 NNW 13 20 7 11 1020.2 1020.6 0.2
27/04:00pm 15.1 10.7 5.0 51 4.8 NW 17 28 9 15 1020.1 - 0.2
27/03:30pm 15.2 11.0 5.7 53 4.6 NW 17 24 9 13 1020.2 1020.6 0.2
27/03:00pm 15.6 11.0 5.4 50 4.9 NW 19 28 10 15 1020.5 1020.9 0.2
27/02:30pm 15.8 11.0 4.6 47 5.3 NW 19 30 10 16 1020.6 1021.0 0.2
27/02:00pm 15.5 9.8 4.8 49 5.1 NW 24 39 13 21 1020.7 - 0.2
27/01:30pm 15.6 9.1 4.9 49 5.1 WNW 28 43 15 23 1021.2 1021.6 0.2
27/01:00pm 16.0 9.4 4.4 46 5.5 NW 28 39 15 21 1021.4 - 0.0
27/12:30pm 16.0 9.9 4.6 46 5.4 NW 26 39 14 21 1022.0 1022.4 0.0
27/12:00pm 14.9 8.6 3.9 47 5.1 NW 26 43 14 23 1022.5 1022.9 0.0
27/11:30am 14.5 8.3 4.2 50 4.8 NW 26 39 14 21 1023.2 1023.6 0.0
27/11:00am 14.4 9.1 4.9 53 4.5 NW 22 33 12 18 1023.8 - 0.0
27/10:30am 13.9 8.9 4.7 54 4.3 NNW 20 37 11 20 1024.3 1024.7 0.0
27/10:00am 13.2 8.6 5.4 59 3.7 NNW 19 24 10 13 1024.6 - 0.0
27/09:30am 11.4 8.8 6.1 70 2.5 N 9 13 5 7 1024.9 1025.3 0.0
27/09:00am 9.5 6.8 5.6 76 1.8 NNE 9 13 5 7 1024.8 1025.2 0.0
27/08:30am 8.1 5.4 5.5 84 1.2 NE 9 11 5 6 1024.5 1024.9 0.0
27/08:00am 6.3 3.4 4.5 88 0.8 NE 9 13 5 7 1024.5 - 0.0
27/07:30am 3.8 0.6 2.8 93 0.4 NE 9 9 5 5 1024.5 1024.9 0.0
27/07:00am 4.0 1.2 3.3 95 0.3 NE 7 9 4 5 1024.6 - 0.0
27/06:30am 4.5 1.3 3.3 92 0.5 NNE 9 11 5 6 1024.3 1024.7 0.0
27/06:00am 4.4 1.3 3.4 93 0.4 NNE 9 13 5 7 1024.3 1024.7 0.0
27/05:30am 3.0 0.1 2.8 99 0.1 NNE 7 9 4 5 1024.3 1024.7 0.0
27/05:00am 2.6 -0.4 2.3 98 0.1 NNE 7 9 4 5 1024.3 - 0.0
27/04:30am 3.4 0.1 2.7 95 0.3 NNE 9 9 5 5 1024.7 1025.1 0.0
27/04:00am 3.2 0.4 3.0 99 0.1 NE 7 9 4 5 1024.7 - 0.0
27/03:30am 3.8 1.0 3.3 97 0.2 NE 7 9 4 5 1025.0 1025.5 0.0
27/03:00am 4.3 1.2 3.6 95 0.3 NNE 9 9 5 5 1025.1 1025.6 0.0
27/02:30am 4.4 1.3 3.7 95 0.3 NE 9 11 5 6 1025.1 1025.6 0.0
27/02:00am 4.6 1.5 3.6 93 0.4 NE 9 11 5 6 1025.1 - 0.0
27/01:30am 4.5 1.1 3.8 95 0.3 NE 11 13 6 7 1025.4 1025.9 0.0
27/01:00am 3.6 0.5 3.4 99 0.1 NE 9 11 5 6 1025.7 - 0.0
27/12:30am 3.2 0.4 3.0 99 0.1 NE 7 9 4 5 1025.8 1026.2 0.0
27/12:00am 3.5 0.7 3.0 97 0.2 NE 7 7 4 4 1026.0 1026.4 0.0
 
Date/Time
CST
Temp
°C
App
Temp
°C
Dew
Point
Rel
Hum
%
Delta-T
°C
Wind Press
QNH
hPa
Press
MSL
hPa
Rain
since 9 am
mm
Dir
 
Spd
km/h
Gust
km/h
Spd
kts
Gust
kts
26/11:30pm 3.4 0.6 3.2 99 0.1 NNE 7 9 4 5 1026.3 1026.7 0.0
26/11:00pm 3.6 1.0 3.4 99 0.1 NE 6 6 3 3 1026.4 - 0.0
26/10:30pm 3.7 1.0 3.5 99 0.1 NE 7 7 4 4 1026.6 1027.0 0.0
26/10:00pm 4.2 1.7 4.0 99 0.1 NE 6 7 3 4 1026.8 - 0.0
26/09:30pm 4.5 2.1 4.5 100 0.0 NE 6 7 3 4 1026.9 1027.3 0.0
26/09:00pm 4.9 2.3 4.4 97 0.2 NE 7 9 4 5 1027.0 1027.4 0.0
26/08:30pm 5.6 3.3 4.9 95 0.3 ENE 6 7 3 4 1027.0 1027.4 0.0
26/08:00pm 6.0 3.8 5.3 95 0.3 ENE 6 7 3 4 1027.0 - 0.0
26/07:30pm 7.4 6.3 6.8 96 0.3 WNW 2 6 1 3 1026.9 1027.3 0.0
26/07:00pm 8.4 6.4 7.3 93 0.5 NW 7 7 4 4 1026.7 - 0.0
26/06:30pm 9.1 7.2 7.4 89 0.8 WNW 7 9 4 5 1026.6 1027.0 0.0
26/06:00pm 9.9 7.5 7.2 83 1.3 W 9 9 5 5 1026.4 1026.8 0.0
26/05:30pm 11.3 9.3 6.9 74 2.1 W 7 7 4 4 1026.2 1026.6 0.0
26/05:00pm 12.5 9.5 6.2 65 3.0 WNW 11 15 6 8 1026.0 - 0.0
26/04:30pm 13.1 9.2 5.5 60 3.6 WNW 15 19 8 10 1026.0 1026.4 0.0

Other Formats:

Comma delimited format used in spreadsheet applications
http://www.bom.gov.au/fwo/IDS60801/IDS60801.94681.axf

JavaScript Object Notation format (JSON) in row-major order
http://www.bom.gov.au/fwo/IDS60801/IDS60801.94681.json